Time;durP1;ratioP1;P1;durP2;ratioP2;P2;SDS_P1;SDS_P2;PMS_P1;PMS_P2;Temp;Humidity;BMP_temperature;BMP_pressure;BME280_temperature;BME280_humidity;BME280_pressure;Samples;Min_cycle;Max_cycle;Signal;HPM_P1;HPM_P2
2023/03/20 00:01:27;;;;;;;325.88;71.97;;;;;;;;;;4964495;28;20063;-58
2023/03/20 00:04:01;;;;;;;311.45;70.50;;;;;;;;;;4967431;28;20067;-57
2023/03/20 00:06:28;;;;;;;263.55;65.78;;;;;;;;;;4972437;28;20043;-57
2023/03/20 00:08:56;;;;;;;317.23;66.43;;;;;;;;;;4974825;28;20055;-57
2023/03/20 00:11:35;;;;;;;289.45;65.10;;;;;;;;;;4960961;28;20069;-55
2023/03/20 00:14:07;;;;;;;367.65;71.78;;;;;;;;;;4965314;28;20042;-54
2023/03/20 00:16:44;;;;;;;316.10;66.45;;;;;;;;;;4970438;28;20063;-59
2023/03/20 00:19:18;;;;;;;349.08;73.25;;;;;;;;;;4967362;28;20098;-59
2023/03/20 00:21:53;;;;;;;394.30;75.82;;;;;;;;;;4968318;28;20419;-60
2023/03/20 00:24:21;;;;;;;470.77;79.65;;;;;;;;;;4969120;28;20047;-59
2023/03/20 00:26:49;;;;;;;376.45;74.15;;;;;;;;;;4970362;28;20145;-61
2023/03/20 00:29:24;;;;;;;385.48;76.90;;;;;;;;;;4969578;28;20179;-59
2023/03/20 00:31:52;;;;;;;503.23;81.85;;;;;;;;;;4967500;28;20054;-58
2023/03/20 00:34:31;;;;;;;421.67;79.85;;;;;;;;;;4971826;28;20047;-59
2023/03/20 00:36:59;;;;;;;430.80;79.38;;;;;;;;;;4971698;28;20499;-58
2023/03/20 00:39:26;;;;;;;361.25;77.93;;;;;;;;;;4953121;28;20043;-61
2023/03/20 00:42:02;;;;;;;471.80;82.70;;;;;;;;;;4970661;28;20058;-59
2023/03/20 00:44:37;;;;;;;454.52;81.15;;;;;;;;;;4970324;28;20150;-56
2023/03/20 00:47:12;;;;;;;489.95;81.85;;;;;;;;;;4971395;28;20565;-58
2023/03/20 00:49:39;;;;;;;543.50;85.47;;;;;;;;;;4968917;28;20497;-56
2023/03/20 00:52:14;;;;;;;558.25;84.32;;;;;;;;;;4969269;28;20506;-57
2023/03/20 00:54:41;;;;;;;551.58;84.47;;;;;;;;;;4968801;28;20430;-58
2023/03/20 00:57:11;;;;;;;635.17;89.93;;;;;;;;;;4972141;28;20746;-60
2023/03/20 01:00:05;;;;;;;608.45;87.20;;;;;;;;;;4957550;28;20134;-66
2023/03/20 01:02:39;;;;;;;534.15;75.75;;;;;;;;;;4968728;28;20145;-67
2023/03/20 01:05:13;;;;;;;418.75;70.10;;;;;;;;;;4987829;28;20046;-67
2023/03/20 01:07:40;;;;;;;442.35;74.32;;;;;;;;;;4991430;28;20445;-67
2023/03/20 01:10:15;;;;;;;450.92;73.45;;;;;;;;;;4984954;28;20066;-67
2023/03/20 01:12:42;;;;;;;429.58;70.80;;;;;;;;;;4984184;28;20068;-56
2023/03/20 01:15:25;;;;;;;460.73;70.72;;;;;;;;;;4987871;28;20061;-58
2023/03/20 01:17:58;;;;;;;467.67;68.55;;;;;;;;;;4973742;28;20050;-58
2023/03/20 01:20:32;;;;;;;574.53;72.80;;;;;;;;;;4987344;28;20045;-56
2023/03/20 01:23:00;;;;;;;748.97;79.45;;;;;;;;;;4989364;28;20077;-56
2023/03/20 01:25:27;;;;;;;537.25;68.47;;;;;;;;;;4989581;28;20050;-60
2023/03/20 01:28:03;;;;;;;728.47;73.07;;;;;;;;;;4982797;28;20062;-51
2023/03/20 01:30:32;;;;;;;493.10;57.28;;;;;;;;;;4987084;28;20046;-55
2023/03/20 01:33:16;;;;;;;494.95;56.90;;;;;;;;;;4991417;28;20051;-51
2023/03/20 01:35:43;;;;;;;479.25;57.53;;;;;;;;;;4985442;28;20053;-53
2023/03/20 01:38:22;;;;;;;367.20;50.90;;;;;;;;;;4989411;28;20108;-55
2023/03/20 01:40:50;;;;;;;499.42;56.42;;;;;;;;;;4988494;28;20092;-54
2023/03/20 01:43:18;;;;;;;455.70;53.85;;;;;;;;;;4988398;28;20062;-58
2023/03/20 01:46:02;;;;;;;423.80;54.17;;;;;;;;;;4983498;28;20129;-58
2023/03/20 01:48:29;;;;;;;;;;;;;;;;;;4988340;28;20149;-59
2023/03/20 01:51:04;;;;;;;787.35;64.78;;;;;;;;;;4979936;28;19955;-59
2023/03/20 01:53:31;;;;;;;757.05;65.97;;;;;;;;;;4980059;28;20536;-60
2023/03/20 01:56:00;;;;;;;934.08;74.85;;;;;;;;;;4975844;28;20410;-63
2023/03/20 01:58:40;;;;;;;988.03;82.53;;;;;;;;;;4986146;28;20057;-63
2023/03/20 02:01:14;;;;;;;1077.85;88.70;;;;;;;;;;4985914;28;20149;-62
2023/03/20 02:03:56;;;;;;;1115.35;90.18;;;;;;;;;;4981450;28;20494;-63
2023/03/20 02:06:23;;;;;;;1181.15;91.47;;;;;;;;;;4986443;28;20421;-63
2023/03/20 02:08:57;;;;;;;1588.43;108.97;;;;;;;;;;4986238;28;20955;-62
2023/03/20 02:11:25;;;;;;;1005.88;82.30;;;;;;;;;;4986092;28;20484;-66
2023/03/20 02:14:00;;;;;;;1645.50;110.55;;;;;;;;;;4986207;28;20485;-68
2023/03/20 02:16:27;;;;;;;1067.72;87.25;;;;;;;;;;4985090;28;20146;-68
2023/03/20 02:18:55;;;;;;;1579.25;107.55;;;;;;;;;;4988487;28;20533;-68
2023/03/20 02:21:35;;;;;;;1533.47;106.85;;;;;;;;;;4987599;28;20054;-61
2023/03/20 02:24:21;;;;;;;1355.95;94.95;;;;;;;;;;4981898;28;20062;-62
2023/03/20 02:27:02;;;;;;;1259.93;91.25;;;;;;;;;;4980841;28;20048;-63
2023/03/20 02:29:58;;;;;;;1245.88;90.05;;;;;;;;;;4987744;28;20054;-62
2023/03/20 02:32:41;;;;;;;1470.07;102.95;;;;;;;;;;4980090;28;20141;-62
2023/03/20 02:35:27;;;;;;;1676.70;112.13;;;;;;;;;;4986182;28;21335;-62
2023/03/20 02:38:19;;;;;;;1492.63;105.43;;;;;;;;;;4987816;28;20137;-59
2023/03/20 02:41:02;;;;;;;1506.50;106.13;;;;;;;;;;4989081;28;20803;-60
2023/03/20 02:43:51;;;;;;;1523.57;105.63;;;;;;;;;;4988007;28;20054;-60
2023/03/20 02:46:26;;;;;;;1184.90;89.85;;;;;;;;;;4977112;28;20065;-59
2023/03/20 02:49:03;;;;;;;1047.13;88.88;;;;;;;;;;4988293;28;20046;-50
2023/03/20 02:51:36;;;;;;;708.05;72.97;;;;;;;;;;4987707;28;20054;-59
2023/03/20 02:54:10;;;;;;;666.65;70.53;;;;;;;;;;4980449;28;20056;-59
2023/03/20 02:57:10;;;;;;;571.47;64.85;;;;;;;;;;4988390;28;20142;-60
2023/03/20 02:59:46;;;;;;;469.98;60.20;;;;;;;;;;4964516;28;20410;-59
2023/03/20 03:02:22;;;;;;;393.98;57.75;;;;;;;;;;4958275;28;20578;-59
2023/03/20 03:05:06;;;;;;;360.70;56.60;;;;;;;;;;4957676;28;20299;-60
2023/03/20 03:07:34;;;;;;;386.17;54.70;;;;;;;;;;4960035;28;20079;-62
2023/03/20 05:08:26;;;;;;;141.02;23.52;;;;;;;;;;4983929;28;20145;-55
2023/03/20 05:11:00;;;;;;;173.18;24.50;;;;;;;;;;4991131;28;20137;-54
2023/03/20 05:13:28;;;;;;;140.80;23.88;;;;;;;;;;4990946;28;20137;-52
2023/03/20 05:16:01;;;;;;;134.40;21.27;;;;;;;;;;4990260;28;20381;-51
2023/03/20 05:18:29;;;;;;;152.45;22.88;;;;;;;;;;4985631;28;20291;-49
2023/03/20 05:20:56;;;;;;;155.98;22.90;;;;;;;;;;4985301;28;20085;-60
2023/03/20 05:23:30;;;;;;;241.40;25.02;;;;;;;;;;4985686;28;20080;-60
2023/03/20 05:25:57;;;;;;;;;;;;;;;;;;4984699;28;20060;-60
2023/03/20 05:28:30;;;;;;;100.72;16.77;;;;;;;;;;4984008;28;20042;-61
2023/03/20 05:30:58;;;;;;;102.65;17.90;;;;;;;;;;4986659;28;20042;-59
2023/03/20 05:33:31;;;;;;;81.78;16.13;;;;;;;;;;4987715;28;20069;-60
2023/03/20 05:36:06;;;;;;;91.90;17.75;;;;;;;;;;4982363;28;20169;-60
2023/03/20 05:38:39;;;;;;;115.32;18.58;;;;;;;;;;4987579;28;20058;-60
2023/03/20 05:41:14;;;;;;;69.78;14.70;;;;;;;;;;4985977;28;20043;-60
2023/03/20 05:43:41;;;;;;;43.75;13.93;;;;;;;;;;4982885;28;20057;-58
2023/03/20 05:46:08;;;;;;;48.38;14.38;;;;;;;;;;4989397;28;20049;-60
2023/03/20 05:48:43;;;;;;;33.28;10.45;;;;;;;;;;4987663;28;20121;-66
2023/03/20 05:51:10;;;;;;;36.63;11.52;;;;;;;;;;4982907;28;20142;-66
2023/03/20 05:53:44;;;;;;;27.05;9.18;;;;;;;;;;4984855;28;20082;-65
2023/03/20 05:56:11;;;;;;;23.38;9.13;;;;;;;;;;4987893;28;20042;-66
2023/03/20 05:58:38;;;;;;;30.20;10.68;;;;;;;;;;4984380;28;22038;-55
2023/03/20 06:01:15;;;;;;;29.63;9.85;;;;;;;;;;4983995;28;20044;-55
2023/03/20 06:03:42;;;;;;;30.17;10.02;;;;;;;;;;4986799;28;20046;-55
2023/03/20 06:06:09;;;;;;;32.75;9.98;;;;;;;;;;4988122;28;20062;-59
2023/03/20 06:08:55;;;;;;;24.88;8.77;;;;;;;;;;4990122;28;20053;-57
2023/03/20 06:11:30;;;;;;;17.17;6.40;;;;;;;;;;4989608;28;20064;-59
2023/03/20 06:14:04;;;;;;;23.55;7.22;;;;;;;;;;4990405;28;20609;-56
2023/03/20 06:16:31;;;;;;;20.42;7.43;;;;;;;;;;4988870;28;20077;-56
2023/03/20 06:18:59;;;;;;;16.02;6.30;;;;;;;;;;4988047;28;20130;-60
2023/03/20 06:21:32;;;;;;;17.25;6.28;;;;;;;;;;4988106;28;20133;-60
2023/03/20 06:24:00;;;;;;;8.90;4.65;;;;;;;;;;4988729;28;20586;-61
2023/03/20 06:26:34;;;;;;;11.63;4.53;;;;;;;;;;4989372;28;20505;-63
2023/03/20 06:29:02;;;;;;;7.50;3.97;;;;;;;;;;4988300;28;20487;-60
2023/03/20 06:31:29;;;;;;;12.18;4.03;;;;;;;;;;4988926;28;20525;-60
2023/03/20 06:34:03;;;;;;;10.73;4.40;;;;;;;;;;4989258;28;20510;-60
2023/03/20 06:36:31;;;;;;;7.63;3.90;;;;;;;;;;4988712;28;20050;-60
2023/03/20 06:39:05;;;;;;;6.57;3.53;;;;;;;;;;4985167;28;20490;-60
2023/03/20 06:41:32;;;;;;;8.23;3.53;;;;;;;;;;4991941;28;20042;-60
2023/03/20 06:44:01;;;;;;;5.70;2.88;;;;;;;;;;4987480;28;20054;-60
2023/03/20 06:46:35;;;;;;;4.82;3.30;;;;;;;;;;4982827;28;20538;-52
2023/03/20 06:49:02;;;;;;;5.32;3.28;;;;;;;;;;4987699;28;20059;-55
2023/03/20 06:51:29;;;;;;;;;;;;;;;;;;4978969;28;20467;-56
2023/03/20 06:54:04;;;;;;;5.82;3.25;;;;;;;;;;4986923;28;19928;-56
2023/03/20 06:56:31;;;;;;;4.57;3.05;;;;;;;;;;4989398;28;20497;-60
2023/03/20 06:59:05;;;;;;;5.72;3.40;;;;;;;;;;4984917;28;20524;-58
2023/03/20 07:01:32;;;;;;;;;;;;;;;;;;4984245;28;20092;-59
2023/03/20 07:04:00;;;;;;;5.75;3.53;;;;;;;;;;4987595;28;19925;-53
2023/03/20 07:06:47;;;;;;;7.72;4.32;;;;;;;;;;4987434;28;20557;-57
2023/03/20 07:09:22;;;;;;;11.23;4.78;;;;;;;;;;4989431;28;20064;-55
2023/03/20 07:11:56;;;;;;;8.00;4.80;;;;;;;;;;4983151;28;20137;-56
2023/03/20 07:14:23;;;;;;;9.43;4.70;;;;;;;;;;4986276;28;20138;-48
2023/03/20 07:16:50;;;;;;;11.38;5.38;;;;;;;;;;4987556;28;20426;-60
2023/03/20 07:19:24;;;;;;;8.07;4.15;;;;;;;;;;4989383;28;20058;-59
2023/03/20 07:21:51;;;;;;;;;;;;;;;;;;4979782;28;20167;-58
2023/03/20 07:24:18;;;;;;;8.52;4.30;;;;;;;;;;4981350;28;19944;-59
2023/03/20 07:26:52;;;;;;;7.60;3.85;;;;;;;;;;4987890;28;20065;-58
2023/03/20 07:29:19;;;;;;;6.28;3.83;;;;;;;;;;4981691;28;20047;-59
2023/03/20 07:31:53;;;;;;;6.82;3.83;;;;;;;;;;4978542;28;21503;-53
2023/03/20 07:34:20;;;;;;;8.75;4.05;;;;;;;;;;4977401;28;20069;-56
2023/03/20 07:36:47;;;;;;;6.20;3.90;;;;;;;;;;4988933;28;20056;-52
2023/03/20 07:39:21;;;;;;;6.75;3.95;;;;;;;;;;4989405;28;20510;-52
2023/03/20 07:41:48;;;;;;;8.23;3.45;;;;;;;;;;4986833;28;20053;-55
2023/03/20 07:44:21;;;;;;;8.65;3.47;;;;;;;;;;4982648;28;20085;-55
2023/03/20 07:46:49;;;;;;;8.20;3.80;;;;;;;;;;4991358;28;20042;-53
2023/03/20 07:49:17;;;;;;;7.63;3.83;;;;;;;;;;4992227;28;20062;-56
2023/03/20 07:51:51;;;;;;;10.80;3.97;;;;;;;;;;4987694;28;20080;-56
2023/03/20 07:54:18;;;;;;;8.40;3.50;;;;;;;;;;4990015;28;20043;-55
2023/03/20 07:56:52;;;;;;;11.43;3.90;;;;;;;;;;4989605;28;20062;-54
2023/03/20 07:59:19;;;;;;;;;;;;;;;;;;4989922;28;20057;-54
2023/03/20 08:01:46;;;;;;;8.63;3.50;;;;;;;;;;4987169;28;19921;-55
2023/03/20 08:04:21;;;;;;;10.15;4.03;;;;;;;;;;4994363;28;20521;-57
2023/03/20 08:06:49;;;;;;;9.45;3.08;;;;;;;;;;4989510;28;20510;-56
2023/03/20 08:09:30;;;;;;;13.48;3.30;;;;;;;;;;4963755;28;20146;-51
2023/03/20 08:11:57;;;;;;;8.05;3.05;;;;;;;;;;4972868;28;20055;-57
2023/03/20 08:14:32;;;;;;;9.23;3.85;;;;;;;;;;4971958;28;20054;-56
2023/03/20 08:17:05;;;;;;;9.82;3.40;;;;;;;;;;4973066;28;20063;-53
2023/03/20 08:19:42;;;;;;;11.13;3.40;;;;;;;;;;4978531;28;20065;-55
2023/03/20 08:22:15;;;;;;;9.45;2.83;;;;;;;;;;4973729;28;20058;-54
2023/03/20 08:24:43;;;;;;;8.55;2.70;;;;;;;;;;4955427;28;20062;-56
2023/03/20 08:27:10;;;;;;;14.38;3.17;;;;;;;;;;4970928;28;20130;-53
2023/03/20 08:29:43;;;;;;;8.32;2.25;;;;;;;;;;4969676;28;20072;-50
2023/03/20 08:32:11;;;;;;;8.90;2.17;;;;;;;;;;4971336;28;20134;-57
2023/03/20 08:34:44;;;;;;;15.82;2.58;;;;;;;;;;4976253;28;20577;-53
2023/03/20 08:37:12;;;;;;;7.32;2.53;;;;;;;;;;4975253;28;20126;-55
2023/03/20 08:39:40;;;;;;;7.50;2.40;;;;;;;;;;4965217;28;20059;-50
2023/03/20 08:42:14;;;;;;;13.63;2.90;;;;;;;;;;4967952;28;20049;-55
2023/03/20 08:44:41;;;;;;;;;;;;;;;;;;4973909;28;20096;-51
2023/03/20 08:47:15;;;;;;;9.13;2.30;;;;;;;;;;4967809;28;20396;-54
2023/03/20 08:49:42;;;;;;;8.80;2.30;;;;;;;;;;4979736;28;20077;-54
2023/03/20 08:52:10;;;;;;;8.63;2.00;;;;;;;;;;4974007;28;20122;-52
2023/03/20 08:54:44;;;;;;;4.60;2.10;;;;;;;;;;4969808;28;20061;-53
2023/03/20 08:57:11;;;;;;;11.32;2.85;;;;;;;;;;4965819;28;20061;-55
2023/03/20 08:59:44;;;;;;;7.63;1.83;;;;;;;;;;4969821;28;21357;-54
2023/03/20 09:02:12;;;;;;;7.30;1.48;;;;;;;;;;4971420;28;20652;-51
2023/03/20 09:04:39;;;;;;;4.72;1.73;;;;;;;;;;4976248;28;20075;-50
2023/03/20 09:07:20;;;;;;;7.03;1.77;;;;;;;;;;4968409;28;20133;-57
2023/03/20 09:09:54;;;;;;;10.82;1.92;;;;;;;;;;4988496;28;20573;-55
2023/03/20 09:12:31;;;;;;;7.68;2.13;;;;;;;;;;4987210;28;20050;-50
2023/03/20 09:14:58;;;;;;;9.43;2.35;;;;;;;;;;4986858;28;20041;-52
2023/03/20 09:17:25;;;;;;;11.75;1.90;;;;;;;;;;4987849;28;20081;-54
2023/03/20 09:20:00;;;;;;;8.50;1.80;;;;;;;;;;4989458;28;20054;-50
2023/03/20 09:22:27;;;;;;;2.40;1.10;;;;;;;;;;4993063;28;20076;-53
2023/03/20 09:25:00;;;;;;;11.35;1.90;;;;;;;;;;4985302;28;20046;-54
2023/03/20 09:27:28;;;;;;;15.98;2.10;;;;;;;;;;4988301;28;20049;-57
2023/03/20 09:29:55;;;;;;;7.47;1.92;;;;;;;;;;4991951;28;20530;-53
2023/03/20 09:32:28;;;;;;;14.20;2.33;;;;;;;;;;4993450;28;20050;-56
2023/03/20 09:34:56;;;;;;;7.35;1.67;;;;;;;;;;4986619;28;20054;-55
2023/03/20 09:37:29;;;;;;;7.40;1.70;;;;;;;;;;4990882;28;20485;-51
2023/03/20 09:39:57;;;;;;;10.52;1.73;;;;;;;;;;4991550;28;20054;-56
2023/03/20 09:42:46;;;;;;;12.68;1.70;;;;;;;;;;4986791;28;20050;-53
2023/03/20 09:45:26;;;;;;;9.82;2.15;;;;;;;;;;4993440;28;20085;-55
2023/03/20 09:48:00;;;;;;;9.63;1.77;;;;;;;;;;4988162;28;20514;-56
2023/03/20 09:50:49;;;;;;;10.55;2.00;;;;;;;;;;4987644;28;20054;-57
2023/03/20 09:53:36;;;;;;;9.45;1.98;;;;;;;;;;4989896;28;20430;-57
2023/03/20 09:56:19;;;;;;;9.05;1.95;;;;;;;;;;4989736;28;20134;-57
2023/03/20 09:58:56;;;;;;;12.32;2.28;;;;;;;;;;4989942;28;20517;-57
2023/03/20 10:01:51;;;;;;;13.20;1.95;;;;;;;;;;4992735;28;20081;-53
2023/03/20 10:04:18;;;;;;;10.63;2.00;;;;;;;;;;4986821;28;20045;-55
2023/03/20 10:06:58;;;;;;;15.63;2.65;;;;;;;;;;4987673;28;20117;-55
2023/03/20 10:09:32;;;;;;;11.02;1.80;;;;;;;;;;4970038;28;20058;-53
2023/03/20 10:12:07;;;;;;;15.65;2.22;;;;;;;;;;4960387;28;20043;-54
2023/03/20 10:14:48;;;;;;;13.45;2.40;;;;;;;;;;4964212;28;20082;-57
2023/03/20 10:17:28;;;;;;;11.20;1.63;;;;;;;;;;4971737;28;20795;-54
2023/03/20 10:20:13;;;;;;;22.40;3.05;;;;;;;;;;4967625;28;20069;-56
2023/03/20 10:22:50;;;;;;;20.05;2.90;;;;;;;;;;4967806;28;20093;-55
2023/03/20 10:25:17;;;;;;;17.55;2.63;;;;;;;;;;4969438;28;20165;-55
2023/03/20 10:28:10;;;;;;;18.73;2.70;;;;;;;;;;4969669;28;20056;-55
2023/03/20 10:30:54;;;;;;;15.38;2.72;;;;;;;;;;4964994;28;20146;-55
2023/03/20 10:33:33;;;;;;;20.88;2.88;;;;;;;;;;4963990;28;20141;-51
2023/03/20 10:36:22;;;;;;;31.70;3.15;;;;;;;;;;4959889;28;20109;-51
2023/03/20 10:38:55;;;;;;;19.10;3.00;;;;;;;;;;4971504;28;20146;-53
2023/03/20 10:41:31;;;;;;;26.17;4.20;;;;;;;;;;4965811;28;20050;-53
2023/03/20 10:43:59;;;;;;;24.98;3.58;;;;;;;;;;4967985;28;20057;-54
2023/03/20 10:46:44;;;;;;;22.77;3.50;;;;;;;;;;4963972;28;20118;-54
2023/03/20 10:49:19;;;;;;;27.27;3.33;;;;;;;;;;4959652;28;20046;-54
2023/03/20 10:51:54;;;;;;;26.55;3.22;;;;;;;;;;4966717;28;20054;-57
2023/03/20 10:54:21;;;;;;;23.00;3.67;;;;;;;;;;4964785;28;20051;-57
2023/03/20 10:56:56;;;;;;;25.98;3.75;;;;;;;;;;4966854;28;20050;-52
2023/03/20 10:59:41;;;;;;;26.23;3.45;;;;;;;;;;4959153;28;20046;-50
2023/03/20 11:02:16;;;;;;;25.40;3.58;;;;;;;;;;4965511;28;20054;-52
2023/03/20 11:04:43;;;;;;;28.77;4.07;;;;;;;;;;4960489;28;20067;-53
2023/03/20 11:07:10;;;;;;;;;;;;;;;;;;4966064;28;20138;-51
2023/03/20 11:09:51;;;;;;;20.55;3.65;;;;;;;;;;4980170;28;20008;-51
2023/03/20 11:12:19;;;;;;;38.83;3.97;;;;;;;;;;4987280;28;20050;-51
2023/03/20 11:14:56;;;;;;;20.35;3.95;;;;;;;;;;4980204;28;20133;-54
2023/03/20 11:17:28;;;;;;;28.35;4.32;;;;;;;;;;4984514;28;20141;-56
2023/03/20 11:20:03;;;;;;;26.80;3.70;;;;;;;;;;4986847;28;20557;-52
2023/03/20 11:22:37;;;;;;;35.08;5.25;;;;;;;;;;4989536;28;20108;-54
2023/03/20 11:25:05;;;;;;;27.83;4.18;;;;;;;;;;4987347;28;20050;-57
2023/03/20 11:27:33;;;;;;;29.83;4.00;;;;;;;;;;4982993;28;20058;-53
2023/03/20 11:30:12;;;;;;;28.15;3.90;;;;;;;;;;4976463;28;20077;-52
2023/03/20 11:32:40;;;;;;;29.80;3.88;;;;;;;;;;4987227;28;20062;-57
2023/03/20 11:35:35;;;;;;;33.55;4.22;;;;;;;;;;4987318;28;20046;-53
2023/03/20 11:38:14;;;;;;;36.22;4.78;;;;;;;;;;4978827;28;20129;-54
2023/03/20 11:40:42;;;;;;;21.13;3.63;;;;;;;;;;4988489;28;20058;-55
2023/03/20 11:43:20;;;;;;;35.00;3.55;;;;;;;;;;4984323;28;20054;-56
2023/03/20 11:45:54;;;;;;;28.20;3.63;;;;;;;;;;4987587;28;20050;-54
2023/03/20 11:48:38;;;;;;;28.75;3.65;;;;;;;;;;4985792;28;20050;-57
2023/03/20 11:51:09;;;;;;;34.53;3.83;;;;;;;;;;4969331;28;20481;-56
2023/03/20 11:53:47;;;;;;;38.95;4.70;;;;;;;;;;4986041;28;21323;-54
2023/03/20 11:56:20;;;;;;;35.88;4.28;;;;;;;;;;4992410;28;20056;-55
2023/03/20 11:59:02;;;;;;;30.30;4.60;;;;;;;;;;4981737;28;20569;-53
2023/03/20 12:01:39;;;;;;;31.30;5.03;;;;;;;;;;4987451;28;20105;-56
2023/03/20 12:04:15;;;;;;;28.00;4.03;;;;;;;;;;4986193;28;20179;-57
2023/03/20 12:07:02;;;;;;;31.98;4.38;;;;;;;;;;4986108;28;20144;-53
2023/03/20 12:09:46;;;;;;;29.67;3.30;;;;;;;;;;4978941;28;20054;-54
2023/03/20 12:12:19;;;;;;;29.77;4.50;;;;;;;;;;4984663;28;20149;-51
2023/03/20 12:15:11;;;;;;;24.58;3.53;;;;;;;;;;4984440;28;20068;-54
2023/03/20 12:17:58;;;;;;;25.40;3.47;;;;;;;;;;4987181;28;20168;-56
2023/03/20 12:20:46;;;;;;;30.48;4.28;;;;;;;;;;4981901;28;20141;-55
2023/03/20 12:23:28;;;;;;;31.52;4.43;;;;;;;;;;4987109;28;20085;-54
2023/03/20 12:25:59;;;;;;;23.52;3.47;;;;;;;;;;4990959;28;20502;-55
2023/03/20 12:28:39;;;;;;;28.17;3.60;;;;;;;;;;4977664;28;20082;-52
2023/03/20 12:31:21;;;;;;;32.05;3.85;;;;;;;;;;4983867;28;20063;-55
2023/03/20 12:34:10;;;;;;;23.80;3.72;;;;;;;;;;4988731;28;20074;-56
2023/03/20 12:36:45;;;;;;;32.70;4.18;;;;;;;;;;4992325;28;20583;-53
2023/03/20 12:39:22;;;;;;;25.88;3.90;;;;;;;;;;4990492;28;20395;-52
2023/03/20 12:42:02;;;;;;;26.55;3.83;;;;;;;;;;4992808;28;20049;-54
2023/03/20 12:44:39;;;;;;;29.95;3.58;;;;;;;;;;4995661;28;20050;-54
2023/03/20 12:47:15;;;;;;;23.55;3.45;;;;;;;;;;4974995;28;20138;-61
2023/03/20 12:49:50;;;;;;;29.63;4.60;;;;;;;;;;4969366;28;20082;-61
2023/03/20 12:52:37;;;;;;;28.80;5.00;;;;;;;;;;4984212;28;20714;-60
2023/03/20 12:55:11;;;;;;;24.90;3.55;;;;;;;;;;4989582;28;20050;-60
2023/03/20 12:57:51;;;;;;;25.92;4.72;;;;;;;;;;4990300;28;20141;-60
2023/03/20 13:00:22;;;;;;;24.50;3.60;;;;;;;;;;4988926;28;20050;-60
2023/03/20 13:03:19;;;;;;;20.60;3.63;;;;;;;;;;4984195;28;20425;-61
2023/03/20 13:05:52;;;;;;;21.73;3.08;;;;;;;;;;4980495;28;20153;-50
2023/03/20 13:08:44;;;;;;;24.85;2.85;;;;;;;;;;4994184;28;20046;-51
2023/03/20 13:11:17;;;;;;;22.52;2.85;;;;;;;;;;4991636;28;20046;-50
2023/03/20 13:13:56;;;;;;;27.25;3.38;;;;;;;;;;4988366;28;20137;-50
2023/03/20 13:16:35;;;;;;;22.05;3.22;;;;;;;;;;4988365;28;20062;-49
2023/03/20 13:19:27;;;;;;;22.25;2.60;;;;;;;;;;4984984;28;20154;-48
2023/03/20 13:22:12;;;;;;;17.92;2.95;;;;;;;;;;4988428;28;20061;-49
2023/03/20 13:24:49;;;;;;;14.82;2.50;;;;;;;;;;4992310;28;20054;-48
2023/03/20 13:27:16;;;;;;;28.80;3.55;;;;;;;;;;4992403;28;20501;-50
2023/03/20 13:29:58;;;;;;;17.17;2.78;;;;;;;;;;4990274;28;20579;-53
2023/03/20 13:32:43;;;;;;;14.77;2.67;;;;;;;;;;4990344;28;20410;-67
2023/03/20 13:35:22;;;;;;;11.55;2.83;;;;;;;;;;4991968;28;20054;-61
2023/03/20 13:37:57;;;;;;;9.50;2.00;;;;;;;;;;4988020;28;20116;-60
2023/03/20 13:40:24;;;;;;;14.15;2.22;;;;;;;;;;4987271;28;20536;-61
2023/03/20 13:43:34;;;;;;;17.90;3.00;;;;;;;;;;4990102;28;20261;-61
2023/03/20 13:46:14;;;;;;;20.95;2.78;;;;;;;;;;4991075;28;20060;-60
2023/03/20 13:48:48;;;;;;;14.68;2.05;;;;;;;;;;4983618;28;20050;-61
2023/03/20 13:51:36;;;;;;;22.63;3.20;;;;;;;;;;4987742;28;20088;-61
2023/03/20 13:54:25;;;;;;;18.02;2.72;;;;;;;;;;4983031;28;20061;-62
2023/03/20 13:56:56;;;;;;;10.27;2.40;;;;;;;;;;4987195;28;20204;-61
2023/03/20 13:59:49;;;;;;;17.20;3.00;;;;;;;;;;4992308;28;20059;-53
2023/03/20 14:02:24;;;;;;;18.73;2.80;;;;;;;;;;4989550;28;20495;-60
2023/03/20 14:05:25;;;;;;;14.30;2.42;;;;;;;;;;4987752;28;20519;-60
2023/03/20 14:07:58;;;;;;;11.07;2.28;;;;;;;;;;4985397;28;20096;-59
2023/03/20 14:10:33;;;;;;;14.75;2.78;;;;;;;;;;4985656;28;20483;-59
2023/03/20 14:13:05;;;;;;;14.93;2.40;;;;;;;;;;4986086;28;20050;-59
2023/03/20 14:15:44;;;;;;;16.83;3.08;;;;;;;;;;4985786;28;20061;-59
2023/03/20 14:18:14;;;;;;;12.85;2.25;;;;;;;;;;4984767;28;20185;-63
2023/03/20 14:20:53;;;;;;;14.70;2.10;;;;;;;;;;4989604;28;20491;-63
2023/03/20 14:23:25;;;;;;;11.18;2.70;;;;;;;;;;4990436;28;20057;-63
2023/03/20 14:25:59;;;;;;;;;;;;;;;;;;4988095;28;20046;-63
2023/03/20 14:28:34;;;;;;;15.13;2.55;;;;;;;;;;4988671;28;20012;-60
2023/03/20 14:31:12;;;;;;;16.63;2.92;;;;;;;;;;4987842;28;20061;-61
2023/03/20 14:33:43;;;;;;;9.73;2.65;;;;;;;;;;4986137;28;20589;-60
2023/03/20 14:36:17;;;;;;;;;;;;;;;;;;4968743;28;20055;-61
2023/03/20 14:38:55;;;;;;;13.77;2.28;;;;;;;;;;4986496;28;19921;-60
2023/03/20 14:41:29;;;;;;;11.50;2.00;;;;;;;;;;4987657;28;20058;-61
2023/03/20 14:44:03;;;;;;;15.05;2.00;;;;;;;;;;4984073;28;20459;-61
2023/03/20 14:46:42;;;;;;;10.63;2.13;;;;;;;;;;4985454;28;20145;-49
2023/03/20 14:49:34;;;;;;;15.90;2.47;;;;;;;;;;4984860;28;20480;-51
2023/03/20 14:52:14;;;;;;;15.05;2.58;;;;;;;;;;4988689;28;20046;-55
2023/03/20 14:54:54;;;;;;;8.40;1.98;;;;;;;;;;4990926;28;20498;-50
2023/03/20 14:57:29;;;;;;;11.50;2.40;;;;;;;;;;4988920;28;20078;-62
2023/03/20 15:00:23;;;;;;;9.45;1.88;;;;;;;;;;4984803;28;20110;-62
2023/03/20 15:02:51;;;;;;;12.27;2.10;;;;;;;;;;4985511;28;20062;-62
2023/03/20 15:05:28;;;;;;;21.73;3.05;;;;;;;;;;4987999;28;20143;-62
2023/03/20 15:07:56;;;;;;;14.70;2.60;;;;;;;;;;4984832;28;20128;-62
2023/03/20 15:10:37;;;;;;;13.25;2.78;;;;;;;;;;4983227;28;20050;-61
2023/03/20 15:13:06;;;;;;;18.50;3.20;;;;;;;;;;4987645;28;20058;-62
2023/03/20 15:15:51;;;;;;;10.73;2.30;;;;;;;;;;4986005;28;20153;-57
2023/03/20 15:18:19;;;;;;;16.30;2.75;;;;;;;;;;4987575;28;20054;-58
2023/03/20 15:20:57;;;;;;;18.13;2.60;;;;;;;;;;4982643;28;20050;-59
2023/03/20 15:23:30;;;;;;;22.23;2.42;;;;;;;;;;4973307;28;20082;-60
2023/03/20 15:25:59;;;;;;;18.63;2.70;;;;;;;;;;4988814;28;20150;-67
2023/03/20 15:28:36;;;;;;;16.67;2.50;;;;;;;;;;4982971;28;20149;-59
2023/03/20 15:31:05;;;;;;;17.42;2.90;;;;;;;;;;4985338;28;20096;-61
2023/03/20 15:33:40;;;;;;;14.20;2.30;;;;;;;;;;4986319;28;20129;-60
2023/03/20 15:36:22;;;;;;;11.57;2.00;;;;;;;;;;4988512;28;20043;-60
2023/03/20 15:38:49;;;;;;;18.75;2.72;;;;;;;;;;4987674;28;20055;-60
2023/03/20 15:41:27;;;;;;;15.20;2.80;;;;;;;;;;4986589;28;20503;-60
2023/03/20 15:44:03;;;;;;;21.08;2.67;;;;;;;;;;4989198;28;20129;-62
2023/03/20 15:46:30;;;;;;;14.20;2.33;;;;;;;;;;4988188;28;20630;-62
2023/03/20 15:48:59;;;;;;;;;;;;;;;;;;4988528;28;20173;-62
2023/03/20 15:51:34;;;;;;;15.60;2.75;;;;;;;;;;4991332;28;20733;-62
2023/03/20 15:54:06;;;;;;;14.05;2.70;;;;;;;;;;4993714;28;20057;-53
2023/03/20 15:56:42;;;;;;;13.55;2.38;;;;;;;;;;4990275;28;20150;-56
2023/03/20 15:59:12;;;;;;;11.65;2.30;;;;;;;;;;4988890;28;20390;-59
2023/03/20 16:01:40;;;;;;;18.08;2.80;;;;;;;;;;4991290;28;20055;-55
2023/03/20 16:04:15;;;;;;;16.90;2.67;;;;;;;;;;4987342;28;20061;-58
2023/03/20 16:06:52;;;;;;;16.10;2.83;;;;;;;;;;4988417;28;20050;-51
2023/03/20 16:09:41;;;;;;;17.60;2.88;;;;;;;;;;4989796;28;20062;-55
2023/03/20 16:12:16;;;;;;;14.95;2.35;;;;;;;;;;4990270;28;20074;-58
2023/03/20 16:14:50;;;;;;;20.40;2.63;;;;;;;;;;4993004;28;20145;-56
2023/03/20 16:17:25;;;;;;;18.05;2.72;;;;;;;;;;4991967;28;20047;-57
2023/03/20 16:19:59;;;;;;;16.13;2.17;;;;;;;;;;4991961;28;20505;-58
2023/03/20 16:22:29;;;;;;;13.90;2.17;;;;;;;;;;4991801;28;20144;-49
2023/03/20 16:24:58;;;;;;;15.43;2.60;;;;;;;;;;4989333;28;20141;-62
2023/03/20 16:27:33;;;;;;;16.67;2.20;;;;;;;;;;4990450;28;20076;-62
2023/03/20 16:30:05;;;;;;;14.27;2.38;;;;;;;;;;4989269;28;20072;-62
2023/03/20 16:32:41;;;;;;;18.15;3.00;;;;;;;;;;4984802;28;20216;-62
2023/03/20 16:35:19;;;;;;;18.75;2.70;;;;;;;;;;4991731;28;20054;-62
2023/03/20 16:38:00;;;;;;;13.15;2.47;;;;;;;;;;4985631;28;20057;-62
2023/03/20 16:40:27;;;;;;;16.83;2.65;;;;;;;;;;4989625;28;20084;-62
2023/03/20 16:43:13;;;;;;;16.55;2.63;;;;;;;;;;4990272;28;20050;-63
2023/03/20 16:45:41;;;;;;;13.55;2.50;;;;;;;;;;4991933;28;20769;-62
2023/03/20 16:48:15;;;;;;;15.25;2.10;;;;;;;;;;4993035;28;20132;-62
2023/03/20 16:50:47;;;;;;;15.50;2.50;;;;;;;;;;4993277;28;20145;-59
2023/03/20 16:53:15;;;;;;;15.23;2.53;;;;;;;;;;4989129;28;20522;-67
2023/03/20 16:55:50;;;;;;;19.70;2.72;;;;;;;;;;4989892;28;20046;-66
2023/03/20 16:58:19;;;;;;;12.02;2.22;;;;;;;;;;4990177;28;20054;-66
2023/03/20 17:01:03;;;;;;;18.85;2.67;;;;;;;;;;4992006;28;20145;-67
2023/03/20 17:03:51;;;;;;;16.30;3.28;;;;;;;;;;4989645;28;20144;-66
2023/03/20 17:06:34;;;;;;;19.45;2.25;;;;;;;;;;4974531;28;20109;-66
2023/03/20 17:09:07;;;;;;;11.20;1.92;;;;;;;;;;4987809;28;20058;-63
2023/03/20 17:11:45;;;;;;;9.93;1.80;;;;;;;;;;4991981;28;20050;-62